sensor_id;sensor_type;location;lat;lon;timestamp;P1;durP1;ratioP1;P2;durP2;ratioP2
8665;SDS011;4370;48.916;8.380;2023-02-01T00:01:50;6.53;;;4.77;;
8665;SDS011;4370;48.916;8.380;2023-02-01T00:04:16;5.13;;;4.27;;
8665;SDS011;4370;48.916;8.380;2023-02-01T00:06:42;6.23;;;4.53;;
8665;SDS011;4370;48.916;8.380;2023-02-01T00:09:08;5.87;;;4.37;;
8665;SDS011;4370;48.916;8.380;2023-02-01T00:11:34;4.50;;;4.00;;
8665;SDS011;4370;48.916;8.380;2023-02-01T00:14:00;5.97;;;4.17;;
8665;SDS011;4370;48.916;8.380;2023-02-01T00:16:27;6.33;;;4.10;;
8665;SDS011;4370;48.916;8.380;2023-02-01T00:19:01;5.90;;;4.13;;
8665;SDS011;4370;48.916;8.380;2023-02-01T00:21:27;9.37;;;4.20;;
8665;SDS011;4370;48.916;8.380;2023-02-01T00:23:53;6.83;;;3.87;;
8665;SDS011;4370;48.916;8.380;2023-02-01T00:26:20;5.50;;;3.67;;
8665;SDS011;4370;48.916;8.380;2023-02-01T00:28:51;5.30;;;3.53;;
8665;SDS011;4370;48.916;8.380;2023-02-01T00:31:17;5.37;;;3.50;;
8665;SDS011;4370;48.916;8.380;2023-02-01T00:33:43;5.20;;;3.40;;
8665;SDS011;4370;48.916;8.380;2023-02-01T00:36:12;7.67;;;3.30;;
8665;SDS011;4370;48.916;8.380;2023-02-01T00:38:37;4.40;;;3.17;;
8665;SDS011;4370;48.916;8.380;2023-02-01T00:41:04;3.73;;;2.90;;
8665;SDS011;4370;48.916;8.380;2023-02-01T00:43:32;4.43;;;2.70;;
8665;SDS011;4370;48.916;8.380;2023-02-01T00:45:58;3.40;;;2.90;;
8665;SDS011;4370;48.916;8.380;2023-02-01T00:48:24;4.30;;;3.03;;
8665;SDS011;4370;48.916;8.380;2023-02-01T00:50:50;4.27;;;3.23;;
8665;SDS011;4370;48.916;8.380;2023-02-01T00:53:16;3.10;;;2.60;;
8665;SDS011;4370;48.916;8.380;2023-02-01T00:55:46;3.13;;;2.73;;
8665;SDS011;4370;48.916;8.380;2023-02-01T00:58:12;4.47;;;2.50;;
8665;SDS011;4370;48.916;8.380;2023-02-01T01:00:39;3.67;;;2.80;;
8665;SDS011;4370;48.916;8.380;2023-02-01T01:03:05;5.33;;;2.90;;
8665;SDS011;4370;48.916;8.380;2023-02-01T01:05:46;3.97;;;2.70;;
8665;SDS011;4370;48.916;8.380;2023-02-01T01:08:13;2.80;;;2.37;;
8665;SDS011;4370;48.916;8.380;2023-02-01T01:10:39;4.57;;;2.60;;
8665;SDS011;4370;48.916;8.380;2023-02-01T01:13:05;2.70;;;2.50;;
8665;SDS011;4370;48.916;8.380;2023-02-01T01:15:35;3.77;;;2.80;;
8665;SDS011;4370;48.916;8.380;2023-02-01T01:18:02;4.23;;;2.90;;
8665;SDS011;4370;48.916;8.380;2023-02-01T01:20:28;4.73;;;3.00;;
8665;SDS011;4370;48.916;8.380;2023-02-01T01:22:54;4.80;;;2.77;;
8665;SDS011;4370;48.916;8.380;2023-02-01T01:25:20;5.70;;;3.30;;
8665;SDS011;4370;48.916;8.380;2023-02-01T01:27:46;3.80;;;2.90;;
8665;SDS011;4370;48.916;8.380;2023-02-01T01:30:12;4.33;;;3.10;;
8665;SDS011;4370;48.916;8.380;2023-02-01T01:32:38;2.87;;;2.60;;
8665;SDS011;4370;48.916;8.380;2023-02-01T01:35:05;4.30;;;3.20;;
8665;SDS011;4370;48.916;8.380;2023-02-01T01:37:31;6.30;;;3.13;;
8665;SDS011;4370;48.916;8.380;2023-02-01T01:39:57;5.77;;;3.60;;
8665;SDS011;4370;48.916;8.380;2023-02-01T01:42:22;4.40;;;3.20;;
8665;SDS011;4370;48.916;8.380;2023-02-01T01:44:59;4.20;;;3.20;;
8665;SDS011;4370;48.916;8.380;2023-02-01T01:47:34;5.33;;;3.43;;
8665;SDS011;4370;48.916;8.380;2023-02-01T01:50:03;4.07;;;3.17;;
8665;SDS011;4370;48.916;8.380;2023-02-01T01:52:32;3.97;;;3.27;;
8665;SDS011;4370;48.916;8.380;2023-02-01T01:54:58;3.87;;;3.20;;
8665;SDS011;4370;48.916;8.380;2023-02-01T01:57:29;5.07;;;3.73;;
8665;SDS011;4370;48.916;8.380;2023-02-01T02:00:02;4.50;;;3.10;;
8665;SDS011;4370;48.916;8.380;2023-02-01T02:02:32;6.30;;;3.30;;
8665;SDS011;4370;48.916;8.380;2023-02-01T02:04:58;4.40;;;3.20;;
8665;SDS011;4370;48.916;8.380;2023-02-01T02:07:28;5.03;;;3.40;;
8665;SDS011;4370;48.916;8.380;2023-02-01T02:09:58;5.27;;;3.27;;
8665;SDS011;4370;48.916;8.380;2023-02-01T02:12:24;3.40;;;3.10;;
8665;SDS011;4370;48.916;8.380;2023-02-01T02:14:50;4.73;;;3.40;;
8665;SDS011;4370;48.916;8.380;2023-02-01T02:17:29;3.97;;;3.13;;
8665;SDS011;4370;48.916;8.380;2023-02-01T02:20:07;4.17;;;2.90;;
8665;SDS011;4370;48.916;8.380;2023-02-01T02:23:22;6.80;;;3.37;;
8665;SDS011;4370;48.916;8.380;2023-02-01T02:26:11;4.27;;;3.10;;
8665;SDS011;4370;48.916;8.380;2023-02-01T02:31:54;7.33;;;3.10;;
8665;SDS011;4370;48.916;8.380;2023-02-01T02:34:46;4.63;;;2.90;;
8665;SDS011;4370;48.916;8.380;2023-02-01T02:37:40;3.73;;;3.10;;
8665;SDS011;4370;48.916;8.380;2023-02-01T02:40:32;5.07;;;3.20;;
8665;SDS011;4370;48.916;8.380;2023-02-01T02:46:21;4.37;;;3.07;;
8665;SDS011;4370;48.916;8.380;2023-02-01T02:49:15;4.10;;;3.20;;
8665;SDS011;4370;48.916;8.380;2023-02-01T02:52:02;4.90;;;3.50;;
8665;SDS011;4370;48.916;8.380;2023-02-01T02:54:52;4.20;;;3.13;;
8665;SDS011;4370;48.916;8.380;2023-02-01T03:00:06;3.40;;;3.07;;
8665;SDS011;4370;48.916;8.380;2023-02-01T03:02:52;3.67;;;3.00;;
8665;SDS011;4370;48.916;8.380;2023-02-01T03:05:39;3.97;;;3.00;;
8665;SDS011;4370;48.916;8.380;2023-02-01T03:11:00;4.07;;;3.20;;
8665;SDS011;4370;48.916;8.380;2023-02-01T03:18:45;6.40;;;3.70;;
8665;SDS011;4370;48.916;8.380;2023-02-01T03:21:19;4.43;;;3.53;;
8665;SDS011;4370;48.916;8.380;2023-02-01T03:23:49;5.10;;;3.77;;
8665;SDS011;4370;48.916;8.380;2023-02-01T03:26:18;5.00;;;3.40;;
8665;SDS011;4370;48.916;8.380;2023-02-01T03:28:51;4.03;;;2.80;;
8665;SDS011;4370;48.916;8.380;2023-02-01T03:31:27;6.53;;;3.20;;
8665;SDS011;4370;48.916;8.380;2023-02-01T03:33:53;4.90;;;3.50;;
8665;SDS011;4370;48.916;8.380;2023-02-01T03:41:23;4.73;;;2.97;;
8665;SDS011;4370;48.916;8.380;2023-02-01T03:46:33;3.00;;;2.70;;
8665;SDS011;4370;48.916;8.380;2023-02-01T03:49:16;5.03;;;2.90;;
8665;SDS011;4370;48.916;8.380;2023-02-01T03:51:56;4.77;;;3.37;;
8665;SDS011;4370;48.916;8.380;2023-02-01T03:54:24;3.70;;;3.10;;
8665;SDS011;4370;48.916;8.380;2023-02-01T03:56:52;3.20;;;2.53;;
8665;SDS011;4370;48.916;8.380;2023-02-01T03:59:21;4.20;;;2.83;;
8665;SDS011;4370;48.916;8.380;2023-02-01T04:01:48;3.43;;;2.70;;
8665;SDS011;4370;48.916;8.380;2023-02-01T04:04:15;3.70;;;2.80;;
8665;SDS011;4370;48.916;8.380;2023-02-01T04:06:45;3.30;;;2.60;;
8665;SDS011;4370;48.916;8.380;2023-02-01T04:09:11;3.67;;;2.60;;
8665;SDS011;4370;48.916;8.380;2023-02-01T04:11:37;3.70;;;2.43;;
8665;SDS011;4370;48.916;8.380;2023-02-01T04:14:03;3.80;;;2.67;;
8665;SDS011;4370;48.916;8.380;2023-02-01T04:16:29;3.30;;;2.40;;
8665;SDS011;4370;48.916;8.380;2023-02-01T04:18:58;4.07;;;2.63;;
8665;SDS011;4370;48.916;8.380;2023-02-01T04:21:24;3.67;;;2.30;;
8665;SDS011;4370;48.916;8.380;2023-02-01T04:23:50;3.50;;;2.40;;
8665;SDS011;4370;48.916;8.380;2023-02-01T04:26:16;3.80;;;2.37;;
8665;SDS011;4370;48.916;8.380;2023-02-01T04:28:43;4.43;;;2.07;;
8665;SDS011;4370;48.916;8.380;2023-02-01T04:31:12;2.43;;;2.10;;
8665;SDS011;4370;48.916;8.380;2023-02-01T04:33:38;2.20;;;1.80;;
8665;SDS011;4370;48.916;8.380;2023-02-01T04:36:04;2.77;;;2.20;;
8665;SDS011;4370;48.916;8.380;2023-02-01T04:38:30;2.33;;;1.90;;
8665;SDS011;4370;48.916;8.380;2023-02-01T04:40:57;3.40;;;2.13;;
8665;SDS011;4370;48.916;8.380;2023-02-01T04:43:23;2.40;;;1.93;;
8665;SDS011;4370;48.916;8.380;2023-02-01T04:45:48;4.20;;;2.00;;
8665;SDS011;4370;48.916;8.380;2023-02-01T04:48:15;2.77;;;2.03;;
8665;SDS011;4370;48.916;8.380;2023-02-01T04:50:42;3.00;;;1.67;;
8665;SDS011;4370;48.916;8.380;2023-02-01T04:53:10;4.47;;;2.17;;
8665;SDS011;4370;48.916;8.380;2023-02-01T04:55:36;2.77;;;2.00;;
8665;SDS011;4370;48.916;8.380;2023-02-01T04:58:02;2.13;;;1.93;;
8665;SDS011;4370;48.916;8.380;2023-02-01T05:00:28;2.50;;;1.80;;
8665;SDS011;4370;48.916;8.380;2023-02-01T05:02:54;2.87;;;1.80;;
8665;SDS011;4370;48.916;8.380;2023-02-01T05:05:20;2.50;;;2.00;;
8665;SDS011;4370;48.916;8.380;2023-02-01T05:07:46;3.50;;;2.20;;
8665;SDS011;4370;48.916;8.380;2023-02-01T05:10:12;4.30;;;2.60;;
8665;SDS011;4370;48.916;8.380;2023-02-01T05:12:38;4.70;;;2.60;;
8665;SDS011;4370;48.916;8.380;2023-02-01T05:15:23;5.30;;;2.60;;
8665;SDS011;4370;48.916;8.380;2023-02-01T05:17:49;4.23;;;2.80;;
8665;SDS011;4370;48.916;8.380;2023-02-01T05:20:14;5.03;;;2.73;;
8665;SDS011;4370;48.916;8.380;2023-02-01T05:22:41;4.93;;;3.60;;
8665;SDS011;4370;48.916;8.380;2023-02-01T05:25:07;4.77;;;2.80;;
8665;SDS011;4370;48.916;8.380;2023-02-01T05:27:33;5.23;;;3.30;;
8665;SDS011;4370;48.916;8.380;2023-02-01T05:29:59;7.00;;;3.60;;
8665;SDS011;4370;48.916;8.380;2023-02-01T05:32:25;4.97;;;3.53;;
8665;SDS011;4370;48.916;8.380;2023-02-01T05:34:51;4.77;;;3.37;;
8665;SDS011;4370;48.916;8.380;2023-02-01T05:37:16;5.40;;;3.47;;
8665;SDS011;4370;48.916;8.380;2023-02-01T05:39:42;4.73;;;3.47;;
8665;SDS011;4370;48.916;8.380;2023-02-01T05:42:08;4.80;;;3.70;;
8665;SDS011;4370;48.916;8.380;2023-02-01T05:44:34;6.13;;;3.60;;
8665;SDS011;4370;48.916;8.380;2023-02-01T05:46:59;4.63;;;3.33;;
8665;SDS011;4370;48.916;8.380;2023-02-01T05:49:25;5.37;;;3.33;;
8665;SDS011;4370;48.916;8.380;2023-02-01T05:51:51;5.37;;;3.60;;
8665;SDS011;4370;48.916;8.380;2023-02-01T05:54:16;5.53;;;3.60;;
8665;SDS011;4370;48.916;8.380;2023-02-01T05:56:42;4.57;;;3.50;;
8665;SDS011;4370;48.916;8.380;2023-02-01T05:59:08;4.90;;;3.53;;
8665;SDS011;4370;48.916;8.380;2023-02-01T06:01:35;5.63;;;3.87;;
8665;SDS011;4370;48.916;8.380;2023-02-01T06:04:01;6.93;;;3.93;;
8665;SDS011;4370;48.916;8.380;2023-02-01T06:06:27;4.47;;;3.90;;
8665;SDS011;4370;48.916;8.380;2023-02-01T06:08:53;8.93;;;4.20;;
8665;SDS011;4370;48.916;8.380;2023-02-01T06:11:19;4.80;;;3.63;;
8665;SDS011;4370;48.916;8.380;2023-02-01T06:13:44;6.70;;;4.27;;
8665;SDS011;4370;48.916;8.380;2023-02-01T06:16:10;7.30;;;4.10;;
8665;SDS011;4370;48.916;8.380;2023-02-01T06:18:36;5.07;;;3.93;;
8665;SDS011;4370;48.916;8.380;2023-02-01T06:21:02;4.73;;;3.30;;
8665;SDS011;4370;48.916;8.380;2023-02-01T06:23:29;6.10;;;4.10;;
8665;SDS011;4370;48.916;8.380;2023-02-01T06:25:59;5.87;;;3.50;;
8665;SDS011;4370;48.916;8.380;2023-02-01T06:28:30;8.30;;;3.77;;
8665;SDS011;4370;48.916;8.380;2023-02-01T06:30:56;6.60;;;3.47;;
8665;SDS011;4370;48.916;8.380;2023-02-01T06:33:23;4.87;;;3.20;;
8665;SDS011;4370;48.916;8.380;2023-02-01T06:35:49;4.67;;;3.70;;
8665;SDS011;4370;48.916;8.380;2023-02-01T06:38:14;5.97;;;4.03;;
8665;SDS011;4370;48.916;8.380;2023-02-01T06:40:41;4.80;;;3.77;;
8665;SDS011;4370;48.916;8.380;2023-02-01T06:43:07;6.67;;;3.90;;
8665;SDS011;4370;48.916;8.380;2023-02-01T06:45:33;5.77;;;4.00;;
8665;SDS011;4370;48.916;8.380;2023-02-01T06:47:59;4.30;;;3.33;;
8665;SDS011;4370;48.916;8.380;2023-02-01T06:50:25;5.53;;;3.77;;
8665;SDS011;4370;48.916;8.380;2023-02-01T06:52:51;4.57;;;3.30;;
8665;SDS011;4370;48.916;8.380;2023-02-01T06:55:17;6.03;;;3.80;;
8665;SDS011;4370;48.916;8.380;2023-02-01T06:57:43;7.23;;;3.80;;
8665;SDS011;4370;48.916;8.380;2023-02-01T07:00:09;4.47;;;3.20;;
8665;SDS011;4370;48.916;8.380;2023-02-01T07:02:35;4.90;;;3.23;;
8665;SDS011;4370;48.916;8.380;2023-02-01T07:05:03;5.93;;;3.37;;
8665;SDS011;4370;48.916;8.380;2023-02-01T07:07:29;4.70;;;3.60;;
8665;SDS011;4370;48.916;8.380;2023-02-01T07:09:54;4.83;;;3.90;;
8665;SDS011;4370;48.916;8.380;2023-02-01T07:12:20;4.27;;;3.20;;
8665;SDS011;4370;48.916;8.380;2023-02-01T07:14:46;8.03;;;3.47;;
8665;SDS011;4370;48.916;8.380;2023-02-01T07:17:12;5.57;;;3.30;;
8665;SDS011;4370;48.916;8.380;2023-02-01T07:19:38;5.17;;;3.23;;
8665;SDS011;4370;48.916;8.380;2023-02-01T07:22:04;7.17;;;3.37;;
8665;SDS011;4370;48.916;8.380;2023-02-01T07:24:30;7.67;;;3.83;;
8665;SDS011;4370;48.916;8.380;2023-02-01T07:26:56;5.90;;;3.27;;
8665;SDS011;4370;48.916;8.380;2023-02-01T07:29:22;4.37;;;3.00;;
8665;SDS011;4370;48.916;8.380;2023-02-01T07:31:48;9.53;;;3.63;;
8665;SDS011;4370;48.916;8.380;2023-02-01T07:34:14;4.37;;;3.10;;
8665;SDS011;4370;48.916;8.380;2023-02-01T07:36:40;6.20;;;3.50;;
8665;SDS011;4370;48.916;8.380;2023-02-01T07:39:06;4.00;;;3.03;;
8665;SDS011;4370;48.916;8.380;2023-02-01T07:41:32;4.43;;;3.03;;
8665;SDS011;4370;48.916;8.380;2023-02-01T07:43:58;3.70;;;2.73;;
8665;SDS011;4370;48.916;8.380;2023-02-01T07:46:24;4.23;;;3.00;;
8665;SDS011;4370;48.916;8.380;2023-02-01T07:48:50;6.60;;;3.37;;
8665;SDS011;4370;48.916;8.380;2023-02-01T07:51:16;5.10;;;3.30;;
8665;SDS011;4370;48.916;8.380;2023-02-01T07:53:42;6.53;;;3.10;;
8665;SDS011;4370;48.916;8.380;2023-02-01T07:56:12;10.27;;;3.10;;
8665;SDS011;4370;48.916;8.380;2023-02-01T07:58:39;4.63;;;2.90;;
8665;SDS011;4370;48.916;8.380;2023-02-01T08:01:10;5.70;;;2.67;;
8665;SDS011;4370;48.916;8.380;2023-02-01T08:03:50;5.43;;;2.60;;
8665;SDS011;4370;48.916;8.380;2023-02-01T08:06:20;4.17;;;2.53;;
8665;SDS011;4370;48.916;8.380;2023-02-01T08:08:46;4.47;;;2.50;;
8665;SDS011;4370;48.916;8.380;2023-02-01T08:11:13;4.63;;;2.80;;
8665;SDS011;4370;48.916;8.380;2023-02-01T08:13:39;5.67;;;2.60;;
8665;SDS011;4370;48.916;8.380;2023-02-01T08:16:07;5.27;;;2.50;;
8665;SDS011;4370;48.916;8.380;2023-02-01T08:18:34;5.83;;;2.60;;
8665;SDS011;4370;48.916;8.380;2023-02-01T08:21:04;5.93;;;2.70;;
8665;SDS011;4370;48.916;8.380;2023-02-01T08:23:38;4.77;;;2.30;;
8665;SDS011;4370;48.916;8.380;2023-02-01T08:26:06;10.27;;;2.73;;
8665;SDS011;4370;48.916;8.380;2023-02-01T08:28:33;6.43;;;2.70;;
8665;SDS011;4370;48.916;8.380;2023-02-01T08:30:59;6.60;;;3.00;;
8665;SDS011;4370;48.916;8.380;2023-02-01T08:33:25;4.70;;;2.50;;
8665;SDS011;4370;48.916;8.380;2023-02-01T08:35:50;6.37;;;3.00;;
8665;SDS011;4370;48.916;8.380;2023-02-01T08:38:16;9.83;;;2.93;;
8665;SDS011;4370;48.916;8.380;2023-02-01T08:40:42;8.00;;;2.93;;
8665;SDS011;4370;48.916;8.380;2023-02-01T08:43:08;3.73;;;2.37;;
8665;SDS011;4370;48.916;8.380;2023-02-01T08:45:33;6.60;;;2.80;;
8665;SDS011;4370;48.916;8.380;2023-02-01T08:47:59;5.30;;;2.80;;
8665;SDS011;4370;48.916;8.380;2023-02-01T08:50:25;7.57;;;2.77;;
8665;SDS011;4370;48.916;8.380;2023-02-01T08:52:51;6.80;;;3.00;;
8665;SDS011;4370;48.916;8.380;2023-02-01T08:55:18;7.00;;;2.87;;
8665;SDS011;4370;48.916;8.380;2023-02-01T08:57:44;8.43;;;2.87;;
8665;SDS011;4370;48.916;8.380;2023-02-01T09:00:14;8.17;;;2.80;;
8665;SDS011;4370;48.916;8.380;2023-02-01T09:02:41;10.93;;;3.03;;
8665;SDS011;4370;48.916;8.380;2023-02-01T09:05:07;4.33;;;3.07;;
8665;SDS011;4370;48.916;8.380;2023-02-01T09:07:33;7.07;;;2.53;;
8665;SDS011;4370;48.916;8.380;2023-02-01T09:10:00;5.93;;;2.30;;
8665;SDS011;4370;48.916;8.380;2023-02-01T09:12:26;4.40;;;2.60;;
8665;SDS011;4370;48.916;8.380;2023-02-01T09:14:53;7.80;;;2.90;;
8665;SDS011;4370;48.916;8.380;2023-02-01T09:17:20;4.77;;;2.50;;
8665;SDS011;4370;48.916;8.380;2023-02-01T09:19:46;8.00;;;2.90;;
8665;SDS011;4370;48.916;8.380;2023-02-01T09:22:12;7.47;;;2.67;;
8665;SDS011;4370;48.916;8.380;2023-02-01T09:24:37;6.60;;;2.80;;
8665;SDS011;4370;48.916;8.380;2023-02-01T09:27:03;4.73;;;2.50;;
8665;SDS011;4370;48.916;8.380;2023-02-01T09:29:29;6.10;;;2.63;;
8665;SDS011;4370;48.916;8.380;2023-02-01T09:31:55;6.97;;;2.80;;
8665;SDS011;4370;48.916;8.380;2023-02-01T09:34:21;10.73;;;3.70;;
8665;SDS011;4370;48.916;8.380;2023-02-01T09:36:47;5.27;;;2.33;;
8665;SDS011;4370;48.916;8.380;2023-02-01T09:39:13;9.13;;;3.50;;
8665;SDS011;4370;48.916;8.380;2023-02-01T09:47:04;5.97;;;2.33;;
8665;SDS011;4370;48.916;8.380;2023-02-01T09:49:43;5.60;;;3.10;;
8665;SDS011;4370;48.916;8.380;2023-02-01T09:52:15;6.70;;;3.00;;
8665;SDS011;4370;48.916;8.380;2023-02-01T09:54:49;7.23;;;2.77;;
8665;SDS011;4370;48.916;8.380;2023-02-01T09:57:44;7.03;;;2.70;;
8665;SDS011;4370;48.916;8.380;2023-02-01T10:00:17;11.57;;;3.33;;
8665;SDS011;4370;48.916;8.380;2023-02-01T10:02:48;8.97;;;2.63;;
8665;SDS011;4370;48.916;8.380;2023-02-01T10:05:16;7.30;;;2.97;;
8665;SDS011;4370;48.916;8.380;2023-02-01T10:08:25;11.03;;;3.27;;
8665;SDS011;4370;48.916;8.380;2023-02-01T10:11:13;9.23;;;2.60;;
8665;SDS011;4370;48.916;8.380;2023-02-01T10:13:59;8.60;;;2.83;;
8665;SDS011;4370;48.916;8.380;2023-02-01T10:16:43;9.43;;;3.43;;
8665;SDS011;4370;48.916;8.380;2023-02-01T10:22:09;13.53;;;3.37;;
8665;SDS011;4370;48.916;8.380;2023-02-01T10:24:47;9.07;;;3.13;;
8665;SDS011;4370;48.916;8.380;2023-02-01T10:27:29;9.20;;;2.50;;
8665;SDS011;4370;48.916;8.380;2023-02-01T10:30:01;7.30;;;2.73;;
8665;SDS011;4370;48.916;8.380;2023-02-01T10:32:38;8.70;;;3.10;;
8665;SDS011;4370;48.916;8.380;2023-02-01T10:35:47;10.90;;;2.83;;
8665;SDS011;4370;48.916;8.380;2023-02-01T10:37:59;6.93;;;2.87;;
8665;SDS011;4370;48.916;8.380;2023-02-01T10:40:27;9.13;;;2.80;;
8665;SDS011;4370;48.916;8.380;2023-02-01T10:43:01;6.97;;;2.90;;
8665;SDS011;4370;48.916;8.380;2023-02-01T10:45:28;8.10;;;2.70;;
8665;SDS011;4370;48.916;8.380;2023-02-01T10:47:55;8.93;;;2.77;;
8665;SDS011;4370;48.916;8.380;2023-02-01T10:50:40;8.43;;;2.57;;
8665;SDS011;4370;48.916;8.380;2023-02-01T10:53:20;12.37;;;3.03;;
8665;SDS011;4370;48.916;8.380;2023-02-01T10:55:51;8.83;;;3.40;;
8665;SDS011;4370;48.916;8.380;2023-02-01T10:58:28;8.30;;;3.00;;
8665;SDS011;4370;48.916;8.380;2023-02-01T11:01:02;9.17;;;2.90;;
8665;SDS011;4370;48.916;8.380;2023-02-01T11:06:09;9.47;;;3.47;;
8665;SDS011;4370;48.916;8.380;2023-02-01T11:08:58;16.57;;;3.57;;
8665;SDS011;4370;48.916;8.380;2023-02-01T11:11:52;10.27;;;3.00;;
8665;SDS011;4370;48.916;8.380;2023-02-01T11:14:26;14.27;;;3.10;;
8665;SDS011;4370;48.916;8.380;2023-02-01T11:16:58;10.00;;;3.73;;
8665;SDS011;4370;48.916;8.380;2023-02-01T11:20:03;9.37;;;3.07;;
8665;SDS011;4370;48.916;8.380;2023-02-01T11:22:31;6.80;;;2.87;;
8665;SDS011;4370;48.916;8.380;2023-02-01T11:24:58;11.17;;;3.20;;
8665;SDS011;4370;48.916;8.380;2023-02-01T11:27:26;12.17;;;3.20;;
8665;SDS011;4370;48.916;8.380;2023-02-01T11:29:53;7.13;;;2.80;;
8665;SDS011;4370;48.916;8.380;2023-02-01T11:32:23;8.73;;;2.77;;
8665;SDS011;4370;48.916;8.380;2023-02-01T11:34:54;10.53;;;3.07;;
8665;SDS011;4370;48.916;8.380;2023-02-01T11:37:35;8.83;;;3.60;;
8665;SDS011;4370;48.916;8.380;2023-02-01T11:40:09;11.63;;;3.57;;
8665;SDS011;4370;48.916;8.380;2023-02-01T11:42:56;11.83;;;4.03;;
8665;SDS011;4370;48.916;8.380;2023-02-01T11:45:32;8.53;;;3.07;;
8665;SDS011;4370;48.916;8.380;2023-02-01T11:48:02;10.63;;;2.87;;
8665;SDS011;4370;48.916;8.380;2023-02-01T11:53:19;6.80;;;2.77;;
8665;SDS011;4370;48.916;8.380;2023-02-01T12:15:25;6.60;;;3.30;;
8665;SDS011;4370;48.916;8.380;2023-02-01T12:33:55;12.60;;;3.63;;
8665;SDS011;4370;48.916;8.380;2023-02-01T12:36:32;7.20;;;3.20;;
8665;SDS011;4370;48.916;8.380;2023-02-01T12:42:52;8.20;;;3.80;;
8665;SDS011;4370;48.916;8.380;2023-02-01T12:44:55;7.57;;;2.90;;
8665;SDS011;4370;48.916;8.380;2023-02-01T12:47:38;8.57;;;3.37;;
8665;SDS011;4370;48.916;8.380;2023-02-01T12:55:52;8.17;;;3.10;;
8665;SDS011;4370;48.916;8.380;2023-02-01T13:00:59;17.43;;;4.07;;
8665;SDS011;4370;48.916;8.380;2023-02-01T13:03:38;11.37;;;3.40;;
8665;SDS011;4370;48.916;8.380;2023-02-01T13:06:19;7.97;;;2.77;;
8665;SDS011;4370;48.916;8.380;2023-02-01T13:09:09;11.90;;;3.30;;
8665;SDS011;4370;48.916;8.380;2023-02-01T13:11:38;10.97;;;3.30;;
8665;SDS011;4370;48.916;8.380;2023-02-01T13:19:34;11.93;;;3.87;;
8665;SDS011;4370;48.916;8.380;2023-02-01T13:22:09;11.03;;;4.23;;
8665;SDS011;4370;48.916;8.380;2023-02-01T13:27:04;11.43;;;3.40;;
8665;SDS011;4370;48.916;8.380;2023-02-01T13:29:30;12.90;;;4.17;;
8665;SDS011;4370;48.916;8.380;2023-02-01T13:34:53;8.77;;;3.80;;
8665;SDS011;4370;48.916;8.380;2023-02-01T13:37:30;11.63;;;4.03;;
8665;SDS011;4370;48.916;8.380;2023-02-01T13:42:49;9.87;;;3.63;;
8665;SDS011;4370;48.916;8.380;2023-02-01T13:47:52;10.80;;;3.97;;
8665;SDS011;4370;48.916;8.380;2023-02-01T13:50:24;13.13;;;4.20;;
8665;SDS011;4370;48.916;8.380;2023-02-01T13:52:54;11.53;;;3.80;;
8665;SDS011;4370;48.916;8.380;2023-02-01T13:56:25;10.00;;;4.00;;
8665;SDS011;4370;48.916;8.380;2023-02-01T13:58:22;12.60;;;4.37;;
8665;SDS011;4370;48.916;8.380;2023-02-01T14:09:14;12.47;;;3.80;;
8665;SDS011;4370;48.916;8.380;2023-02-01T14:11:46;10.60;;;3.70;;
8665;SDS011;4370;48.916;8.380;2023-02-01T14:19:23;11.30;;;3.27;;
8665;SDS011;4370;48.916;8.380;2023-02-01T14:21:54;14.33;;;4.33;;
8665;SDS011;4370;48.916;8.380;2023-02-01T14:26:50;18.90;;;3.80;;
8665;SDS011;4370;48.916;8.380;2023-02-01T14:29:36;10.73;;;3.80;;
8665;SDS011;4370;48.916;8.380;2023-02-01T14:32:22;15.67;;;4.03;;
8665;SDS011;4370;48.916;8.380;2023-02-01T14:34:53;16.50;;;3.93;;
8665;SDS011;4370;48.916;8.380;2023-02-01T15:00:57;9.57;;;3.50;;
8665;SDS011;4370;48.916;8.380;2023-02-01T15:06:22;10.37;;;3.63;;
8665;SDS011;4370;48.916;8.380;2023-02-01T15:08:59;15.67;;;3.47;;
8665;SDS011;4370;48.916;8.380;2023-02-01T15:11:28;15.10;;;4.03;;
8665;SDS011;4370;48.916;8.380;2023-02-01T15:13:54;17.10;;;3.60;;
8665;SDS011;4370;48.916;8.380;2023-02-01T15:16:22;13.60;;;3.50;;
8665;SDS011;4370;48.916;8.380;2023-02-01T15:18:50;11.30;;;3.43;;
8665;SDS011;4370;48.916;8.380;2023-02-01T15:21:20;16.77;;;3.47;;
8665;SDS011;4370;48.916;8.380;2023-02-01T15:23:47;14.53;;;4.00;;
8665;SDS011;4370;48.916;8.380;2023-02-01T15:26:30;14.70;;;3.57;;
8665;SDS011;4370;48.916;8.380;2023-02-01T15:28:59;12.87;;;3.37;;
8665;SDS011;4370;48.916;8.380;2023-02-01T15:31:39;13.97;;;3.10;;
8665;SDS011;4370;48.916;8.380;2023-02-01T15:34:07;12.07;;;3.27;;
8665;SDS011;4370;48.916;8.380;2023-02-01T15:36:33;13.63;;;3.20;;
8665;SDS011;4370;48.916;8.380;2023-02-01T15:41:48;15.67;;;3.30;;
8665;SDS011;4370;48.916;8.380;2023-02-01T15:44:20;14.77;;;3.53;;
8665;SDS011;4370;48.916;8.380;2023-02-01T15:46:52;9.77;;;2.90;;
8665;SDS011;4370;48.916;8.380;2023-02-01T15:51:44;15.07;;;3.70;;
8665;SDS011;4370;48.916;8.380;2023-02-01T15:54:18;9.80;;;3.00;;
8665;SDS011;4370;48.916;8.380;2023-02-01T15:56:53;9.80;;;3.37;;
8665;SDS011;4370;48.916;8.380;2023-02-01T15:59:21;14.93;;;3.30;;
8665;SDS011;4370;48.916;8.380;2023-02-01T16:01:50;12.00;;;3.83;;
8665;SDS011;4370;48.916;8.380;2023-02-01T16:04:23;13.43;;;3.10;;
8665;SDS011;4370;48.916;8.380;2023-02-01T16:06:51;13.33;;;3.40;;
8665;SDS011;4370;48.916;8.380;2023-02-01T16:09:20;13.87;;;3.50;;
8665;SDS011;4370;48.916;8.380;2023-02-01T16:11:48;10.17;;;3.37;;
8665;SDS011;4370;48.916;8.380;2023-02-01T16:14:25;14.07;;;3.70;;
8665;SDS011;4370;48.916;8.380;2023-02-01T16:16:52;11.77;;;3.70;;
8665;SDS011;4370;48.916;8.380;2023-02-01T16:19:19;12.50;;;3.93;;
8665;SDS011;4370;48.916;8.380;2023-02-01T16:21:47;9.50;;;3.80;;
8665;SDS011;4370;48.916;8.380;2023-02-01T16:24:13;10.83;;;3.20;;
8665;SDS011;4370;48.916;8.380;2023-02-01T16:26:38;13.40;;;3.33;;
8665;SDS011;4370;48.916;8.380;2023-02-01T16:29:04;11.07;;;3.40;;
8665;SDS011;4370;48.916;8.380;2023-02-01T16:31:32;11.00;;;3.47;;
8665;SDS011;4370;48.916;8.380;2023-02-01T16:34:02;15.73;;;3.67;;
8665;SDS011;4370;48.916;8.380;2023-02-01T16:36:28;12.90;;;3.70;;
8665;SDS011;4370;48.916;8.380;2023-02-01T16:38:54;14.40;;;4.17;;
8665;SDS011;4370;48.916;8.380;2023-02-01T16:41:21;12.23;;;4.07;;
8665;SDS011;4370;48.916;8.380;2023-02-01T16:43:51;11.63;;;4.03;;
8665;SDS011;4370;48.916;8.380;2023-02-01T16:46:19;14.23;;;3.80;;
8665;SDS011;4370;48.916;8.380;2023-02-01T16:48:57;13.57;;;3.67;;
8665;SDS011;4370;48.916;8.380;2023-02-01T16:51:30;14.30;;;3.33;;
8665;SDS011;4370;48.916;8.380;2023-02-01T16:53:57;12.67;;;3.80;;
8665;SDS011;4370;48.916;8.380;2023-02-01T16:56:27;14.23;;;3.90;;
8665;SDS011;4370;48.916;8.380;2023-02-01T16:58:56;11.77;;;3.13;;
8665;SDS011;4370;48.916;8.380;2023-02-01T17:01:22;7.37;;;3.20;;
8665;SDS011;4370;48.916;8.380;2023-02-01T17:03:48;21.27;;;4.10;;
8665;SDS011;4370;48.916;8.380;2023-02-01T17:06:15;13.93;;;3.90;;
8665;SDS011;4370;48.916;8.380;2023-02-01T17:08:44;14.20;;;4.20;;
8665;SDS011;4370;48.916;8.380;2023-02-01T17:11:12;15.60;;;4.43;;
8665;SDS011;4370;48.916;8.380;2023-02-01T17:13:38;14.73;;;4.97;;
8665;SDS011;4370;48.916;8.380;2023-02-01T17:16:20;87.20;;;28.90;;
8665;SDS011;4370;48.916;8.380;2023-02-01T17:18:57;35.27;;;14.57;;
8665;SDS011;4370;48.916;8.380;2023-02-01T17:21:27;10.30;;;6.13;;
8665;SDS011;4370;48.916;8.380;2023-02-01T17:23:55;26.50;;;11.23;;
8665;SDS011;4370;48.916;8.380;2023-02-01T17:26:23;24.13;;;9.00;;
8665;SDS011;4370;48.916;8.380;2023-02-01T17:28:50;30.50;;;12.43;;
8665;SDS011;4370;48.916;8.380;2023-02-01T17:31:15;56.93;;;25.40;;
8665;SDS011;4370;48.916;8.380;2023-02-01T17:33:41;26.07;;;10.23;;
8665;SDS011;4370;48.916;8.380;2023-02-01T17:36:08;29.73;;;14.07;;
8665;SDS011;4370;48.916;8.380;2023-02-01T17:38:40;20.33;;;8.07;;
8665;SDS011;4370;48.916;8.380;2023-02-01T17:41:08;11.87;;;4.47;;
8665;SDS011;4370;48.916;8.380;2023-02-01T17:43:35;13.73;;;4.23;;
8665;SDS011;4370;48.916;8.380;2023-02-01T17:46:02;12.90;;;3.80;;
8665;SDS011;4370;48.916;8.380;2023-02-01T17:48:30;11.03;;;4.67;;
8665;SDS011;4370;48.916;8.380;2023-02-01T17:50:56;14.23;;;4.33;;
8665;SDS011;4370;48.916;8.380;2023-02-01T17:53:25;10.77;;;4.33;;
8665;SDS011;4370;48.916;8.380;2023-02-01T17:55:52;15.17;;;4.07;;
8665;SDS011;4370;48.916;8.380;2023-02-01T17:58:18;10.87;;;4.10;;